sensor_id;sensor_type;location;lat;lon;timestamp;temperature;humidity
8662;DHT22;29684;47.722;9.388;2022-07-04T00:01:33;21.00;99.90
8662;DHT22;29684;47.722;9.388;2022-07-04T00:04:18;21.10;99.90
8662;DHT22;29684;47.722;9.388;2022-07-04T00:07:02;21.20;99.90
8662;DHT22;29684;47.722;9.388;2022-07-04T00:09:46;21.10;99.90
8662;DHT22;29684;47.722;9.388;2022-07-04T00:12:30;20.90;99.90
8662;DHT22;29684;47.722;9.388;2022-07-04T00:15:15;20.80;99.90
8662;DHT22;29684;47.722;9.388;2022-07-04T00:18:00;20.90;99.90
8662;DHT22;29684;47.722;9.388;2022-07-04T00:20:44;20.80;99.90
8662;DHT22;29684;47.722;9.388;2022-07-04T00:23:28;20.70;99.90
8662;DHT22;29684;47.722;9.388;2022-07-04T00:26:12;20.20;99.90
8662;DHT22;29684;47.722;9.388;2022-07-04T00:28:57;20.00;99.90
8662;DHT22;29684;47.722;9.388;2022-07-04T00:31:41;19.90;99.90
8662;DHT22;29684;47.722;9.388;2022-07-04T00:34:25;19.90;99.90
8662;DHT22;29684;47.722;9.388;2022-07-04T00:37:09;19.90;99.90
8662;DHT22;29684;47.722;9.388;2022-07-04T00:39:54;19.70;99.90
8662;DHT22;29684;47.722;9.388;2022-07-04T00:42:39;19.60;99.90
8662;DHT22;29684;47.722;9.388;2022-07-04T00:45:23;19.50;99.90
8662;DHT22;29684;47.722;9.388;2022-07-04T00:48:07;19.40;99.90
8662;DHT22;29684;47.722;9.388;2022-07-04T00:50:51;19.40;99.90
8662;DHT22;29684;47.722;9.388;2022-07-04T00:53:35;19.30;99.90
8662;DHT22;29684;47.722;9.388;2022-07-04T00:56:21;19.20;99.90
8662;DHT22;29684;47.722;9.388;2022-07-04T00:59:06;19.20;99.90
8662;DHT22;29684;47.722;9.388;2022-07-04T01:01:51;19.30;99.90
8662;DHT22;29684;47.722;9.388;2022-07-04T01:04:35;19.30;99.90
8662;DHT22;29684;47.722;9.388;2022-07-04T01:07:19;19.40;99.90
8662;DHT22;29684;47.722;9.388;2022-07-04T01:10:04;19.50;99.90
8662;DHT22;29684;47.722;9.388;2022-07-04T01:12:48;19.60;99.90
8662;DHT22;29684;47.722;9.388;2022-07-04T01:15:33;19.70;99.90
8662;DHT22;29684;47.722;9.388;2022-07-04T01:18:17;19.80;99.90
8662;DHT22;29684;47.722;9.388;2022-07-04T01:21:02;19.90;99.90
8662;DHT22;29684;47.722;9.388;2022-07-04T01:23:47;20.00;99.90
8662;DHT22;29684;47.722;9.388;2022-07-04T01:26:31;20.00;99.90
8662;DHT22;29684;47.722;9.388;2022-07-04T01:29:15;19.80;99.90
8662;DHT22;29684;47.722;9.388;2022-07-04T01:32:09;19.50;99.90
8662;DHT22;29684;47.722;9.388;2022-07-04T01:34:53;19.40;99.90
8662;DHT22;29684;47.722;9.388;2022-07-04T01:37:37;19.50;99.90
8662;DHT22;29684;47.722;9.388;2022-07-04T01:40:22;19.60;99.90
8662;DHT22;29684;47.722;9.388;2022-07-04T01:43:07;19.60;99.90
8662;DHT22;29684;47.722;9.388;2022-07-04T01:45:51;19.70;99.90
8662;DHT22;29684;47.722;9.388;2022-07-04T01:48:35;19.70;99.90
8662;DHT22;29684;47.722;9.388;2022-07-04T01:51:19;19.80;99.90
8662;DHT22;29684;47.722;9.388;2022-07-04T01:54:03;19.70;99.90
8662;DHT22;29684;47.722;9.388;2022-07-04T01:56:47;19.80;99.90
8662;DHT22;29684;47.722;9.388;2022-07-04T01:59:31;19.70;99.90
8662;DHT22;29684;47.722;9.388;2022-07-04T02:02:34;19.70;99.90
8662;DHT22;29684;47.722;9.388;2022-07-04T02:05:18;19.60;99.90
8662;DHT22;29684;47.722;9.388;2022-07-04T02:08:04;19.40;99.90
8662;DHT22;29684;47.722;9.388;2022-07-04T02:10:48;19.10;99.90
8662;DHT22;29684;47.722;9.388;2022-07-04T02:13:32;18.80;99.90
8662;DHT22;29684;47.722;9.388;2022-07-04T02:16:17;18.60;99.90
8662;DHT22;29684;47.722;9.388;2022-07-04T02:19:01;18.60;99.90
8662;DHT22;29684;47.722;9.388;2022-07-04T02:21:45;18.60;99.90
8662;DHT22;29684;47.722;9.388;2022-07-04T02:24:30;18.50;99.90
8662;DHT22;29684;47.722;9.388;2022-07-04T02:27:14;18.60;99.90
8662;DHT22;29684;47.722;9.388;2022-07-04T02:29:58;18.40;99.90
8662;DHT22;29684;47.722;9.388;2022-07-04T02:32:42;18.30;99.90
8662;DHT22;29684;47.722;9.388;2022-07-04T02:35:27;18.20;99.90
8662;DHT22;29684;47.722;9.388;2022-07-04T02:38:11;18.10;99.90
8662;DHT22;29684;47.722;9.388;2022-07-04T02:40:55;18.10;99.90
8662;DHT22;29684;47.722;9.388;2022-07-04T02:43:39;18.10;99.90
8662;DHT22;29684;47.722;9.388;2022-07-04T02:46:23;18.10;99.90
8662;DHT22;29684;47.722;9.388;2022-07-04T02:49:07;18.10;99.90
8662;DHT22;29684;47.722;9.388;2022-07-04T02:51:51;18.10;99.90
8662;DHT22;29684;47.722;9.388;2022-07-04T02:54:36;18.10;99.90
8662;DHT22;29684;47.722;9.388;2022-07-04T02:57:20;18.10;99.90
8662;DHT22;29684;47.722;9.388;2022-07-04T03:00:04;18.10;99.90
8662;DHT22;29684;47.722;9.388;2022-07-04T03:02:49;18.10;99.90
8662;DHT22;29684;47.722;9.388;2022-07-04T03:05:34;18.10;99.90
8662;DHT22;29684;47.722;9.388;2022-07-04T03:08:18;18.20;99.90
8662;DHT22;29684;47.722;9.388;2022-07-04T03:11:03;18.20;99.90
8662;DHT22;29684;47.722;9.388;2022-07-04T03:13:47;18.20;99.90
8662;DHT22;29684;47.722;9.388;2022-07-04T03:16:31;18.20;99.90
8662;DHT22;29684;47.722;9.388;2022-07-04T03:19:16;18.20;99.90
8662;DHT22;29684;47.722;9.388;2022-07-04T03:22:01;18.20;99.90
8662;DHT22;29684;47.722;9.388;2022-07-04T03:24:45;18.20;99.90
8662;DHT22;29684;47.722;9.388;2022-07-04T03:27:29;18.10;99.90
8662;DHT22;29684;47.722;9.388;2022-07-04T03:30:13;18.10;99.90
8662;DHT22;29684;47.722;9.388;2022-07-04T03:32:58;18.00;99.90
8662;DHT22;29684;47.722;9.388;2022-07-04T03:35:42;18.00;99.90
8662;DHT22;29684;47.722;9.388;2022-07-04T03:38:26;18.00;99.90
8662;DHT22;29684;47.722;9.388;2022-07-04T03:41:10;18.00;99.90
8662;DHT22;29684;47.722;9.388;2022-07-04T03:43:55;17.90;99.90
8662;DHT22;29684;47.722;9.388;2022-07-04T03:46:39;17.80;99.90
8662;DHT22;29684;47.722;9.388;2022-07-04T03:49:23;17.80;99.90
8662;DHT22;29684;47.722;9.388;2022-07-04T03:52:07;17.70;99.90
8662;DHT22;29684;47.722;9.388;2022-07-04T03:54:51;17.70;99.90
8662;DHT22;29684;47.722;9.388;2022-07-04T03:57:35;17.70;99.90
8662;DHT22;29684;47.722;9.388;2022-07-04T04:00:19;17.60;99.90
8662;DHT22;29684;47.722;9.388;2022-07-04T04:03:03;17.60;99.90
8662;DHT22;29684;47.722;9.388;2022-07-04T04:06:07;17.60;99.90
8662;DHT22;29684;47.722;9.388;2022-07-04T04:08:51;17.60;99.90
8662;DHT22;29684;47.722;9.388;2022-07-04T04:11:35;17.60;99.90
8662;DHT22;29684;47.722;9.388;2022-07-04T04:14:20;17.60;99.90
8662;DHT22;29684;47.722;9.388;2022-07-04T04:17:04;17.60;99.90
8662;DHT22;29684;47.722;9.388;2022-07-04T04:19:49;17.60;99.90
8662;DHT22;29684;47.722;9.388;2022-07-04T04:22:33;17.60;99.90
8662;DHT22;29684;47.722;9.388;2022-07-04T04:25:17;17.50;99.90
8662;DHT22;29684;47.722;9.388;2022-07-04T04:28:01;17.50;99.90
8662;DHT22;29684;47.722;9.388;2022-07-04T04:30:45;17.50;99.90
8662;DHT22;29684;47.722;9.388;2022-07-04T04:33:34;17.60;99.90
8662;DHT22;29684;47.722;9.388;2022-07-04T04:36:19;17.50;99.90
8662;DHT22;29684;47.722;9.388;2022-07-04T04:39:03;17.60;99.90
8662;DHT22;29684;47.722;9.388;2022-07-04T04:41:47;17.60;99.90
8662;DHT22;29684;47.722;9.388;2022-07-04T04:44:31;17.80;99.90
8662;DHT22;29684;47.722;9.388;2022-07-04T04:47:15;18.00;99.90
8662;DHT22;29684;47.722;9.388;2022-07-04T04:50:00;18.00;99.90
8662;DHT22;29684;47.722;9.388;2022-07-04T04:52:44;17.80;99.90
8662;DHT22;29684;47.722;9.388;2022-07-04T04:55:29;17.80;99.90
8662;DHT22;29684;47.722;9.388;2022-07-04T04:58:13;17.70;99.90
8662;DHT22;29684;47.722;9.388;2022-07-04T05:00:57;17.80;99.90
8662;DHT22;29684;47.722;9.388;2022-07-04T05:03:41;17.80;99.90
8662;DHT22;29684;47.722;9.388;2022-07-04T05:06:25;17.90;99.90
8662;DHT22;29684;47.722;9.388;2022-07-04T05:09:09;17.90;99.90
8662;DHT22;29684;47.722;9.388;2022-07-04T05:11:53;17.90;99.90
8662;DHT22;29684;47.722;9.388;2022-07-04T05:14:37;18.00;99.90
8662;DHT22;29684;47.722;9.388;2022-07-04T05:17:21;18.10;99.90
8662;DHT22;29684;47.722;9.388;2022-07-04T05:20:06;18.20;99.90
8662;DHT22;29684;47.722;9.388;2022-07-04T05:22:52;18.30;99.90
8662;DHT22;29684;47.722;9.388;2022-07-04T05:25:36;18.30;99.90
8662;DHT22;29684;47.722;9.388;2022-07-04T05:28:20;18.40;99.90
8662;DHT22;29684;47.722;9.388;2022-07-04T05:31:04;18.50;99.90
8662;DHT22;29684;47.722;9.388;2022-07-04T05:33:48;18.60;99.90
8662;DHT22;29684;47.722;9.388;2022-07-04T05:36:32;18.60;99.90
8662;DHT22;29684;47.722;9.388;2022-07-04T05:39:17;18.60;99.90
8662;DHT22;29684;47.722;9.388;2022-07-04T05:42:01;18.50;99.90
8662;DHT22;29684;47.722;9.388;2022-07-04T05:44:45;18.40;99.90
8662;DHT22;29684;47.722;9.388;2022-07-04T05:47:29;18.30;99.90
8662;DHT22;29684;47.722;9.388;2022-07-04T05:50:14;18.30;99.90
8662;DHT22;29684;47.722;9.388;2022-07-04T05:52:59;18.40;99.90
8662;DHT22;29684;47.722;9.388;2022-07-04T05:55:43;18.50;99.90
8662;DHT22;29684;47.722;9.388;2022-07-04T05:58:27;18.30;99.90
8662;DHT22;29684;47.722;9.388;2022-07-04T06:01:14;18.20;99.90
8662;DHT22;29684;47.722;9.388;2022-07-04T06:03:59;18.50;99.90
8662;DHT22;29684;47.722;9.388;2022-07-04T06:06:46;18.60;99.90
8662;DHT22;29684;47.722;9.388;2022-07-04T06:09:30;18.80;99.90
8662;DHT22;29684;47.722;9.388;2022-07-04T06:12:15;18.80;99.90
8662;DHT22;29684;47.722;9.388;2022-07-04T06:14:59;18.90;99.90
8662;DHT22;29684;47.722;9.388;2022-07-04T06:17:43;19.00;99.90
8662;DHT22;29684;47.722;9.388;2022-07-04T06:20:27;19.00;99.90
8662;DHT22;29684;47.722;9.388;2022-07-04T06:23:11;19.10;99.90
8662;DHT22;29684;47.722;9.388;2022-07-04T06:25:55;19.30;99.90
8662;DHT22;29684;47.722;9.388;2022-07-04T06:28:39;19.20;99.90
8662;DHT22;29684;47.722;9.388;2022-07-04T06:31:23;19.30;99.90
8662;DHT22;29684;47.722;9.388;2022-07-04T06:34:07;19.20;99.90
8662;DHT22;29684;47.722;9.388;2022-07-04T06:37:10;19.30;99.90
8662;DHT22;29684;47.722;9.388;2022-07-04T06:39:54;19.50;99.90
8662;DHT22;29684;47.722;9.388;2022-07-04T06:42:38;19.50;99.90
8662;DHT22;29684;47.722;9.388;2022-07-04T06:45:23;19.60;99.90
8662;DHT22;29684;47.722;9.388;2022-07-04T06:48:07;19.60;99.90
8662;DHT22;29684;47.722;9.388;2022-07-04T06:50:51;19.80;99.90
8662;DHT22;29684;47.722;9.388;2022-07-04T06:53:36;20.00;99.90
8662;DHT22;29684;47.722;9.388;2022-07-04T06:56:20;19.90;99.90
8662;DHT22;29684;47.722;9.388;2022-07-04T06:59:04;20.00;99.90
8662;DHT22;29684;47.722;9.388;2022-07-04T07:01:49;19.90;99.90
8662;DHT22;29684;47.722;9.388;2022-07-04T07:04:33;19.90;99.90
8662;DHT22;29684;47.722;9.388;2022-07-04T07:07:17;19.90;99.90
8662;DHT22;29684;47.722;9.388;2022-07-04T07:10:01;19.70;99.90
8662;DHT22;29684;47.722;9.388;2022-07-04T07:12:47;19.80;99.90
8662;DHT22;29684;47.722;9.388;2022-07-04T07:15:32;20.00;99.90
8662;DHT22;29684;47.722;9.388;2022-07-04T07:18:19;20.20;99.90
8662;DHT22;29684;47.722;9.388;2022-07-04T07:21:03;20.00;99.90
8662;DHT22;29684;47.722;9.388;2022-07-04T07:23:48;19.80;99.90
8662;DHT22;29684;47.722;9.388;2022-07-04T07:26:33;20.00;99.90
8662;DHT22;29684;47.722;9.388;2022-07-04T07:29:18;20.30;99.90
8662;DHT22;29684;47.722;9.388;2022-07-04T07:32:04;20.60;99.90
8662;DHT22;29684;47.722;9.388;2022-07-04T07:34:48;21.00;99.90
8662;DHT22;29684;47.722;9.388;2022-07-04T07:37:32;21.50;99.90
8662;DHT22;29684;47.722;9.388;2022-07-04T07:40:16;21.50;99.90
8662;DHT22;29684;47.722;9.388;2022-07-04T07:43:00;21.30;99.90
8662;DHT22;29684;47.722;9.388;2022-07-04T07:45:44;21.10;99.90
8662;DHT22;29684;47.722;9.388;2022-07-04T07:48:28;20.80;99.90
8662;DHT22;29684;47.722;9.388;2022-07-04T07:51:13;20.70;99.90
8662;DHT22;29684;47.722;9.388;2022-07-04T07:53:59;20.80;99.90
8662;DHT22;29684;47.722;9.388;2022-07-04T07:56:44;21.10;99.90
8662;DHT22;29684;47.722;9.388;2022-07-04T07:59:28;21.20;99.90
8662;DHT22;29684;47.722;9.388;2022-07-04T08:02:12;21.40;99.90
8662;DHT22;29684;47.722;9.388;2022-07-04T08:04:57;21.50;99.90
8662;DHT22;29684;47.722;9.388;2022-07-04T08:07:41;21.70;99.90
8662;DHT22;29684;47.722;9.388;2022-07-04T08:10:25;21.80;99.90
8662;DHT22;29684;47.722;9.388;2022-07-04T08:13:10;21.90;99.90
8662;DHT22;29684;47.722;9.388;2022-07-04T08:15:54;22.20;99.90
8662;DHT22;29684;47.722;9.388;2022-07-04T08:18:38;22.40;99.90
8662;DHT22;29684;47.722;9.388;2022-07-04T08:21:22;22.40;99.90
8662;DHT22;29684;47.722;9.388;2022-07-04T08:24:06;22.60;99.90
8662;DHT22;29684;47.722;9.388;2022-07-04T08:26:50;22.80;99.90
8662;DHT22;29684;47.722;9.388;2022-07-04T08:29:36;23.10;99.90
8662;DHT22;29684;47.722;9.388;2022-07-04T08:32:20;23.20;99.90
8662;DHT22;29684;47.722;9.388;2022-07-04T08:35:05;23.30;99.90
8662;DHT22;29684;47.722;9.388;2022-07-04T08:37:49;23.40;99.90
8662;DHT22;29684;47.722;9.388;2022-07-04T08:40:37;23.50;99.90
8662;DHT22;29684;47.722;9.388;2022-07-04T08:43:23;23.50;99.90
8662;DHT22;29684;47.722;9.388;2022-07-04T08:46:09;23.40;99.90
8662;DHT22;29684;47.722;9.388;2022-07-04T08:48:55;23.40;99.90
8662;DHT22;29684;47.722;9.388;2022-07-04T08:54:38;23.30;99.90
8662;DHT22;29684;47.722;9.388;2022-07-04T08:57:43;23.20;99.90
8662;DHT22;29684;47.722;9.388;2022-07-04T09:00:46;23.30;99.90
8662;DHT22;29684;47.722;9.388;2022-07-04T09:03:31;23.00;99.90
8662;DHT22;29684;47.722;9.388;2022-07-04T09:06:15;23.00;99.90
8662;DHT22;29684;47.722;9.388;2022-07-04T09:09:00;22.80;99.90
8662;DHT22;29684;47.722;9.388;2022-07-04T09:11:44;22.70;99.90
8662;DHT22;29684;47.722;9.388;2022-07-04T09:14:28;22.50;99.90
8662;DHT22;29684;47.722;9.388;2022-07-04T09:17:12;22.30;99.90
8662;DHT22;29684;47.722;9.388;2022-07-04T09:20:18;22.20;99.90
8662;DHT22;29684;47.722;9.388;2022-07-04T09:23:24;22.10;99.90
8662;DHT22;29684;47.722;9.388;2022-07-04T09:26:20;22.20;99.90
8662;DHT22;29684;47.722;9.388;2022-07-04T09:29:05;22.20;99.90
8662;DHT22;29684;47.722;9.388;2022-07-04T09:31:49;22.60;99.90
8662;DHT22;29684;47.722;9.388;2022-07-04T09:34:33;22.90;99.90
8662;DHT22;29684;47.722;9.388;2022-07-04T09:37:17;23.40;99.90
8662;DHT22;29684;47.722;9.388;2022-07-04T09:40:06;23.60;99.90
8662;DHT22;29684;47.722;9.388;2022-07-04T09:42:51;23.30;99.90
8662;DHT22;29684;47.722;9.388;2022-07-04T09:45:56;23.00;99.90
8662;DHT22;29684;47.722;9.388;2022-07-04T09:48:50;23.40;99.90
8662;DHT22;29684;47.722;9.388;2022-07-04T09:51:53;23.30;99.90
8662;DHT22;29684;47.722;9.388;2022-07-04T09:54:38;23.30;99.90
8662;DHT22;29684;47.722;9.388;2022-07-04T09:57:22;23.80;99.90
8662;DHT22;29684;47.722;9.388;2022-07-04T10:00:36;23.40;99.90
8662;DHT22;29684;47.722;9.388;2022-07-04T10:06:13;23.50;99.90
8662;DHT22;29684;47.722;9.388;2022-07-04T10:09:17;23.70;99.90
8662;DHT22;29684;47.722;9.388;2022-07-04T10:12:01;24.00;99.90
8662;DHT22;29684;47.722;9.388;2022-07-04T10:14:46;24.30;99.90
8662;DHT22;29684;47.722;9.388;2022-07-04T10:17:31;24.50;99.90
8662;DHT22;29684;47.722;9.388;2022-07-04T10:20:15;24.50;99.90
8662;DHT22;29684;47.722;9.388;2022-07-04T10:23:00;24.70;99.90
8662;DHT22;29684;47.722;9.388;2022-07-04T10:25:48;24.50;99.90
8662;DHT22;29684;47.722;9.388;2022-07-04T10:28:33;24.80;99.90
8662;DHT22;29684;47.722;9.388;2022-07-04T10:31:22;24.70;99.90
8662;DHT22;29684;47.722;9.388;2022-07-04T10:34:07;25.20;99.90
8662;DHT22;29684;47.722;9.388;2022-07-04T10:36:52;25.80;99.90
8662;DHT22;29684;47.722;9.388;2022-07-04T10:39:36;26.20;99.90
8662;DHT22;29684;47.722;9.388;2022-07-04T10:42:25;26.50;99.90
8662;DHT22;29684;47.722;9.388;2022-07-04T10:45:31;25.70;99.90
8662;DHT22;29684;47.722;9.388;2022-07-04T10:48:20;24.70;99.90
8662;DHT22;29684;47.722;9.388;2022-07-04T10:51:06;24.60;99.90
8662;DHT22;29684;47.722;9.388;2022-07-04T10:53:58;25.00;99.90
8662;DHT22;29684;47.722;9.388;2022-07-04T10:56:50;25.20;99.90
8662;DHT22;29684;47.722;9.388;2022-07-04T10:59:35;25.20;99.90
8662;DHT22;29684;47.722;9.388;2022-07-04T11:05:07;24.80;99.90
8662;DHT22;29684;47.722;9.388;2022-07-04T11:10:37;25.10;99.90
8662;DHT22;29684;47.722;9.388;2022-07-04T11:13:22;25.40;99.90
8662;DHT22;29684;47.722;9.388;2022-07-04T11:16:07;25.60;99.90
8662;DHT22;29684;47.722;9.388;2022-07-04T11:18:51;25.70;99.90
8662;DHT22;29684;47.722;9.388;2022-07-04T11:21:37;25.80;99.90
8662;DHT22;29684;47.722;9.388;2022-07-04T11:24:22;25.40;99.90
8662;DHT22;29684;47.722;9.388;2022-07-04T11:27:08;25.20;99.90
8662;DHT22;29684;47.722;9.388;2022-07-04T11:29:56;25.30;99.90
8662;DHT22;29684;47.722;9.388;2022-07-04T11:32:40;25.20;99.90
8662;DHT22;29684;47.722;9.388;2022-07-04T11:35:25;25.20;99.90
8662;DHT22;29684;47.722;9.388;2022-07-04T11:38:10;25.40;99.90
8662;DHT22;29684;47.722;9.388;2022-07-04T11:40:54;25.50;99.90
8662;DHT22;29684;47.722;9.388;2022-07-04T11:44:10;25.50;99.90
8662;DHT22;29684;47.722;9.388;2022-07-04T11:47:19;25.60;99.90
8662;DHT22;29684;47.722;9.388;2022-07-04T11:50:15;25.60;99.90
8662;DHT22;29684;47.722;9.388;2022-07-04T11:53:04;25.40;99.90
8662;DHT22;29684;47.722;9.388;2022-07-04T11:55:53;25.90;99.90
8662;DHT22;29684;47.722;9.388;2022-07-04T11:58:42;26.00;99.90
8662;DHT22;29684;47.722;9.388;2022-07-04T12:01:28;26.30;99.90
8662;DHT22;29684;47.722;9.388;2022-07-04T12:04:17;26.40;99.90
8662;DHT22;29684;47.722;9.388;2022-07-04T12:07:11;26.60;99.90
8662;DHT22;29684;47.722;9.388;2022-07-04T12:09:56;26.50;99.90
8662;DHT22;29684;47.722;9.388;2022-07-04T12:12:55;26.80;99.90
8662;DHT22;29684;47.722;9.388;2022-07-04T12:15:45;27.10;99.90
8662;DHT22;29684;47.722;9.388;2022-07-04T12:18:30;26.40;99.90
8662;DHT22;29684;47.722;9.388;2022-07-04T12:21:18;25.70;99.90
8662;DHT22;29684;47.722;9.388;2022-07-04T12:24:06;25.50;99.90
8662;DHT22;29684;47.722;9.388;2022-07-04T12:26:51;25.40;99.90
8662;DHT22;29684;47.722;9.388;2022-07-04T12:29:36;25.20;99.90
8662;DHT22;29684;47.722;9.388;2022-07-04T12:32:21;25.20;99.90
8662;DHT22;29684;47.722;9.388;2022-07-04T12:35:08;25.10;99.90
8662;DHT22;29684;47.722;9.388;2022-07-04T12:38:03;24.90;99.90
8662;DHT22;29684;47.722;9.388;2022-07-04T12:40:51;25.00;99.90
8662;DHT22;29684;47.722;9.388;2022-07-04T12:46:31;25.90;99.90
8662;DHT22;29684;47.722;9.388;2022-07-04T12:49:16;26.40;99.90
8662;DHT22;29684;47.722;9.388;2022-07-04T12:52:11;27.20;99.90
8662;DHT22;29684;47.722;9.388;2022-07-04T12:55:07;27.30;99.90
8662;DHT22;29684;47.722;9.388;2022-07-04T12:57:54;27.50;99.90
8662;DHT22;29684;47.722;9.388;2022-07-04T13:00:39;27.90;99.90
8662;DHT22;29684;47.722;9.388;2022-07-04T13:03:23;28.60;99.90
8662;DHT22;29684;47.722;9.388;2022-07-04T13:06:08;28.60;99.90
8662;DHT22;29684;47.722;9.388;2022-07-04T13:08:53;28.90;99.90
8662;DHT22;29684;47.722;9.388;2022-07-04T13:11:38;30.20;99.90
8662;DHT22;29684;47.722;9.388;2022-07-04T13:14:41;31.00;99.90
8662;DHT22;29684;47.722;9.388;2022-07-04T13:17:26;31.20;99.90
8662;DHT22;29684;47.722;9.388;2022-07-04T13:20:11;32.40;99.90
8662;DHT22;29684;47.722;9.388;2022-07-04T13:22:56;32.50;99.90
8662;DHT22;29684;47.722;9.388;2022-07-04T13:25:40;32.50;99.90
8662;DHT22;29684;47.722;9.388;2022-07-04T13:28:24;31.10;99.90
8662;DHT22;29684;47.722;9.388;2022-07-04T13:31:09;31.40;99.90
8662;DHT22;29684;47.722;9.388;2022-07-04T13:33:53;30.20;99.90
8662;DHT22;29684;47.722;9.388;2022-07-04T13:36:37;30.70;99.90
8662;DHT22;29684;47.722;9.388;2022-07-04T13:39:23;31.90;99.90
8662;DHT22;29684;47.722;9.388;2022-07-04T13:42:07;31.70;99.90
8662;DHT22;29684;47.722;9.388;2022-07-04T13:44:51;31.20;99.90
8662;DHT22;29684;47.722;9.388;2022-07-04T13:47:35;30.30;99.90
8662;DHT22;29684;47.722;9.388;2022-07-04T13:50:21;29.90;99.90
8662;DHT22;29684;47.722;9.388;2022-07-04T13:53:06;29.20;99.90
8662;DHT22;29684;47.722;9.388;2022-07-04T13:55:50;28.90;99.90
8662;DHT22;29684;47.722;9.388;2022-07-04T13:58:34;28.10;99.90
8662;DHT22;29684;47.722;9.388;2022-07-04T14:01:19;27.60;99.90
8662;DHT22;29684;47.722;9.388;2022-07-04T14:04:04;27.30;99.90
8662;DHT22;29684;47.722;9.388;2022-07-04T14:06:48;27.10;99.90
8662;DHT22;29684;47.722;9.388;2022-07-04T14:09:33;26.50;99.90
8662;DHT22;29684;47.722;9.388;2022-07-04T14:12:17;26.40;99.90
8662;DHT22;29684;47.722;9.388;2022-07-04T14:15:01;26.40;99.90
8662;DHT22;29684;47.722;9.388;2022-07-04T14:17:47;26.40;99.90
8662;DHT22;29684;47.722;9.388;2022-07-04T14:20:31;26.40;99.90
8662;DHT22;29684;47.722;9.388;2022-07-04T14:23:15;26.20;99.90
8662;DHT22;29684;47.722;9.388;2022-07-04T14:26:20;26.10;99.90
8662;DHT22;29684;47.722;9.388;2022-07-04T14:29:08;26.20;99.90
8662;DHT22;29684;47.722;9.388;2022-07-04T14:31:52;26.30;99.90
8662;DHT22;29684;47.722;9.388;2022-07-04T14:34:37;26.60;99.90
8662;DHT22;29684;47.722;9.388;2022-07-04T14:37:21;26.30;99.90
8662;DHT22;29684;47.722;9.388;2022-07-04T14:40:06;26.10;99.90
8662;DHT22;29684;47.722;9.388;2022-07-04T14:42:50;25.80;99.90
8662;DHT22;29684;47.722;9.388;2022-07-04T14:45:34;25.70;99.90
8662;DHT22;29684;47.722;9.388;2022-07-04T14:48:18;25.70;99.90
8662;DHT22;29684;47.722;9.388;2022-07-04T14:51:02;25.50;99.90
8662;DHT22;29684;47.722;9.388;2022-07-04T14:53:47;25.40;99.90
8662;DHT22;29684;47.722;9.388;2022-07-04T14:56:31;25.30;99.90
8662;DHT22;29684;47.722;9.388;2022-07-04T14:59:15;25.20;99.90
8662;DHT22;29684;47.722;9.388;2022-07-04T15:02:00;25.10;99.90
8662;DHT22;29684;47.722;9.388;2022-07-04T15:04:44;25.00;99.90
8662;DHT22;29684;47.722;9.388;2022-07-04T15:07:28;24.70;99.90
8662;DHT22;29684;47.722;9.388;2022-07-04T15:10:14;24.50;99.90
8662;DHT22;29684;47.722;9.388;2022-07-04T15:12:58;24.50;99.90
8662;DHT22;29684;47.722;9.388;2022-07-04T15:15:42;24.20;99.90
8662;DHT22;29684;47.722;9.388;2022-07-04T15:18:27;24.10;99.90
8662;DHT22;29684;47.722;9.388;2022-07-04T15:21:11;24.10;99.90
8662;DHT22;29684;47.722;9.388;2022-07-04T15:24:14;24.20;99.90
8662;DHT22;29684;47.722;9.388;2022-07-04T15:26:59;24.10;99.90
8662;DHT22;29684;47.722;9.388;2022-07-04T15:29:42;24.10;99.90
8662;DHT22;29684;47.722;9.388;2022-07-04T15:32:27;24.00;99.90
8662;DHT22;29684;47.722;9.388;2022-07-04T15:35:11;22.00;99.90
8662;DHT22;29684;47.722;9.388;2022-07-04T15:37:55;19.60;99.90
8662;DHT22;29684;47.722;9.388;2022-07-04T15:40:43;18.30;99.90
8662;DHT22;29684;47.722;9.388;2022-07-04T15:43:30;17.70;99.90
8662;DHT22;29684;47.722;9.388;2022-07-04T15:46:14;17.80;99.90
8662;DHT22;29684;47.722;9.388;2022-07-04T15:49:02;18.00;99.90
8662;DHT22;29684;47.722;9.388;2022-07-04T15:51:46;18.10;99.90
8662;DHT22;29684;47.722;9.388;2022-07-04T15:54:31;18.20;99.90
8662;DHT22;29684;47.722;9.388;2022-07-04T15:57:15;18.30;99.90
8662;DHT22;29684;47.722;9.388;2022-07-04T15:59:59;18.30;99.90
8662;DHT22;29684;47.722;9.388;2022-07-04T16:02:44;18.40;99.90
8662;DHT22;29684;47.722;9.388;2022-07-04T16:05:29;18.50;99.90
8662;DHT22;29684;47.722;9.388;2022-07-04T16:08:13;18.40;99.90
8662;DHT22;29684;47.722;9.388;2022-07-04T16:10:57;18.50;99.90
8662;DHT22;29684;47.722;9.388;2022-07-04T16:13:41;18.70;99.90
8662;DHT22;29684;47.722;9.388;2022-07-04T16:16:25;18.60;99.90
8662;DHT22;29684;47.722;9.388;2022-07-04T16:19:10;18.50;99.90
8662;DHT22;29684;47.722;9.388;2022-07-04T16:21:54;18.50;99.90
8662;DHT22;29684;47.722;9.388;2022-07-04T16:24:38;18.50;99.90
8662;DHT22;29684;47.722;9.388;2022-07-04T16:27:23;18.40;99.90
8662;DHT22;29684;47.722;9.388;2022-07-04T16:30:07;18.40;99.90
8662;DHT22;29684;47.722;9.388;2022-07-04T16:32:52;18.40;99.90
8662;DHT22;29684;47.722;9.388;2022-07-04T16:35:36;18.40;99.90
8662;DHT22;29684;47.722;9.388;2022-07-04T16:38:20;18.40;99.90
8662;DHT22;29684;47.722;9.388;2022-07-04T16:41:05;18.50;99.90
8662;DHT22;29684;47.722;9.388;2022-07-04T16:43:49;18.50;99.90
8662;DHT22;29684;47.722;9.388;2022-07-04T16:46:34;18.50;99.90
8662;DHT22;29684;47.722;9.388;2022-07-04T16:49:18;18.50;99.90
8662;DHT22;29684;47.722;9.388;2022-07-04T16:52:03;18.50;99.90
8662;DHT22;29684;47.722;9.388;2022-07-04T16:54:47;18.50;99.90
8662;DHT22;29684;47.722;9.388;2022-07-04T16:57:31;18.40;99.90
8662;DHT22;29684;47.722;9.388;2022-07-04T17:00:15;18.70;99.90
8662;DHT22;29684;47.722;9.388;2022-07-04T17:03:00;18.80;99.90
8662;DHT22;29684;47.722;9.388;2022-07-04T17:05:44;18.80;99.90
8662;DHT22;29684;47.722;9.388;2022-07-04T17:08:32;18.90;99.90
8662;DHT22;29684;47.722;9.388;2022-07-04T17:11:18;18.90;99.90
8662;DHT22;29684;47.722;9.388;2022-07-04T17:14:02;19.00;99.90
8662;DHT22;29684;47.722;9.388;2022-07-04T17:16:46;18.90;99.90
8662;DHT22;29684;47.722;9.388;2022-07-04T17:19:31;18.90;99.90
8662;DHT22;29684;47.722;9.388;2022-07-04T17:22:16;18.90;99.90
8662;DHT22;29684;47.722;9.388;2022-07-04T17:25:00;19.30;99.90
8662;DHT22;29684;47.722;9.388;2022-07-04T17:27:45;19.30;99.90
8662;DHT22;29684;47.722;9.388;2022-07-04T17:30:29;19.40;99.90
8662;DHT22;29684;47.722;9.388;2022-07-04T17:33:13;19.50;99.90
8662;DHT22;29684;47.722;9.388;2022-07-04T17:35:58;19.60;99.90
8662;DHT22;29684;47.722;9.388;2022-07-04T17:38:42;19.60;99.90
8662;DHT22;29684;47.722;9.388;2022-07-04T17:41:26;19.80;99.90
8662;DHT22;29684;47.722;9.388;2022-07-04T17:44:40;19.70;99.90
8662;DHT22;29684;47.722;9.388;2022-07-04T17:47:25;19.70;99.90
8662;DHT22;29684;47.722;9.388;2022-07-04T17:50:10;19.60;99.90
8662;DHT22;29684;47.722;9.388;2022-07-04T17:52:55;19.60;99.90
8662;DHT22;29684;47.722;9.388;2022-07-04T17:55:40;19.50;99.90
8662;DHT22;29684;47.722;9.388;2022-07-04T17:58:25;19.40;99.90